Etusivu
METAR-TAF:

METAR-TAF

Lentoasemat :

Brownwood, Texas, Yhdysvallat

Leveyspiiri: 31-48N, Pituuspiiri: 098-57W, korkeus merenpinnasta: 422 m

Tämänhetkinen sää

Tämä raportti tehtiin 21 minuuttia sitten, kello 04.35 UTC
Tuuli 15 kn etelästä/kaakosta puuskistuen 23 kn:hen, vaihdellen idän/kaakon ja etelän välillä
Lämpötila 25°C
Kosteus 79%
Ilmanpaine 1014 hPa
Näkyvyys: 16.1 km
Pilvistä 2800 ft:n korkeudessa

METAR: KBWD 240435Z AUTO 15015G23KT 120V180 10SM OVC028 25/21 A2993 RMK AO1

Aika: 23:56 (04:56 UTC)


TAF: puuttuu

Säähavainnot ja -ennusteet yli 4000 lentoasemalta (METAR- ja TAF-raportit).

Käytössä olevat sääasemat on merkitty karttaan keltaisilla ja punaisilla pisteillä.

Aseta hiiri pisteen päälle nähdäksesi sääaseman nimen.

Klikkaa sitten nähdäksesi säähavainnot ja -ennusteet.

Kartan vaihtaminen: klikkaa mustalla rastilla varustettuja vihreitä pisteitä, niin voit zoomata sisään; viivalla varustettua vihreää pistettä, niin voit zoomata ulos tai vihreitä nuolia, niin pääset viereisille kartoille.


METAR-TAF: